Time;durP1;ratioP1;P1;durP2;ratioP2;P2;SDS_P1;SDS_P2;PMS_P1;PMS_P2;Temp;Humidity;BMP_temperature;BMP_pressure;BME280_temperature;BME280_humidity;BME280_pressure;Samples;Min_cycle;Max_cycle;Signal;HPM_P1;HPM_P2
2023/02/16 00:03:47;;;;;;;14.05;7.93;;;;;;;;;;10367694;28;20045;-81
2023/02/16 00:08:52;;;;;;;13.23;7.90;;;;;;;;;;10349831;28;20057;-79
2023/02/16 00:13:55;;;;;;;14.68;8.38;;;;;;;;;;10339172;28;20045;-80
2023/02/16 00:19:00;;;;;;;14.38;8.25;;;;;;;;;;10350080;28;20046;-82
2023/02/16 00:24:03;;;;;;;14.18;7.85;;;;;;;;;;10352817;28;20132;-80
2023/02/16 00:29:07;;;;;;;12.50;7.30;;;;;;;;;;10333676;28;20057;-80
2023/02/16 00:34:27;;;;;;;11.52;6.68;;;;;;;;;;10349417;28;20062;-79
2023/02/16 00:39:31;;;;;;;14.50;7.72;;;;;;;;;;10348458;28;20104;-80
2023/02/16 00:44:39;;;;;;;16.73;8.87;;;;;;;;;;10332465;28;20548;-79
2023/02/16 00:49:44;;;;;;;15.40;8.65;;;;;;;;;;10328120;28;20038;-80
2023/02/16 00:54:47;;;;;;;17.67;8.35;;;;;;;;;;10349445;28;20452;-79
2023/02/16 00:59:58;;;;;;;14.23;7.50;;;;;;;;;;10335073;28;20076;-80
2023/02/16 01:05:03;;;;;;;12.35;6.45;;;;;;;;;;10335368;28;20611;-81
2023/02/16 01:15:28;;;;;;;11.40;5.32;;;;;;;;;;10347213;28;20311;-81
2023/02/16 01:20:35;;;;;;;11.63;5.75;;;;;;;;;;10349434;28;20060;-81
2023/02/16 01:25:39;;;;;;;11.43;5.78;;;;;;;;;;10342538;28;20077;-79
2023/02/16 01:30:42;;;;;;;11.30;5.55;;;;;;;;;;10350096;28;20130;-79
2023/02/16 01:35:49;;;;;;;9.77;4.97;;;;;;;;;;10335343;28;20053;-79
2023/02/16 01:40:59;;;;;;;9.93;4.82;;;;;;;;;;10330427;28;20592;-80
2023/02/16 01:46:08;;;;;;;19.13;5.28;;;;;;;;;;10336224;28;20038;-79
2023/02/16 01:51:20;;;;;;;7.72;5.18;;;;;;;;;;10333758;28;20527;-80
2023/02/16 01:56:31;;;;;;;9.95;4.78;;;;;;;;;;10336536;28;20049;-80
2023/02/16 02:01:46;;;;;;;7.53;4.78;;;;;;;;;;10338058;28;20045;-79
2023/02/16 02:06:51;;;;;;;9.85;4.93;;;;;;;;;;10346345;28;20052;-79
2023/02/16 02:12:03;;;;;;;8.43;4.90;;;;;;;;;;10341415;28;20096;-79
2023/02/16 02:17:12;;;;;;;7.80;5.10;;;;;;;;;;10351470;28;20053;-80
2023/02/16 02:28:18;;;;;;;7.30;4.68;;;;;;;;;;10354197;28;20105;-80
2023/02/16 02:33:42;;;;;;;9.45;5.57;;;;;;;;;;10333942;28;20042;-81
2023/02/16 02:38:57;;;;;;;8.65;4.18;;;;;;;;;;10330453;28;20056;-81
2023/02/16 02:44:06;;;;;;;7.30;4.53;;;;;;;;;;10332379;28;20080;-81
2023/02/16 02:49:09;;;;;;;7.78;5.20;;;;;;;;;;10353017;28;20050;-81
2023/02/16 03:05:12;;;;;;;7.18;4.55;;;;;;;;;;10335267;28;20056;-80
2023/02/16 03:15:43;;;;;;;8.15;5.15;;;;;;;;;;10348807;28;20046;-80
2023/02/16 03:31:33;;;;;;;6.90;4.25;;;;;;;;;;10332449;28;20048;-81
2023/02/16 03:36:39;;;;;;;6.60;4.18;;;;;;;;;;10345840;28;20049;-80
2023/02/16 03:41:45;;;;;;;6.70;4.68;;;;;;;;;;10352867;28;20045;-80
2023/02/16 03:46:50;;;;;;;6.93;4.38;;;;;;;;;;10335561;28;20053;-81
2023/02/16 03:51:53;;;;;;;8.80;4.85;;;;;;;;;;10332375;28;20075;-80
2023/02/16 03:56:57;;;;;;;7.50;4.63;;;;;;;;;;10332174;28;20046;-80
2023/02/16 04:02:01;;;;;;;7.07;4.47;;;;;;;;;;10353551;28;20050;-79
2023/02/16 04:07:05;;;;;;;7.22;4.53;;;;;;;;;;10337596;28;20049;-79
2023/02/16 04:17:31;;;;;;;7.50;4.57;;;;;;;;;;10338991;28;20045;-79
2023/02/16 04:22:35;;;;;;;8.15;4.75;;;;;;;;;;10358704;28;20046;-80
2023/02/16 04:27:39;;;;;;;7.53;4.72;;;;;;;;;;10337940;28;20046;-79
2023/02/16 04:32:44;;;;;;;7.80;4.53;;;;;;;;;;10327360;28;20088;-79
2023/02/16 04:37:48;;;;;;;8.07;4.82;;;;;;;;;;10326400;28;20100;-79
2023/02/16 04:42:51;;;;;;;12.55;6.03;;;;;;;;;;10344234;28;20046;-79
2023/02/16 04:47:56;;;;;;;9.38;6.30;;;;;;;;;;10332437;28;20046;-78
2023/02/16 04:53:00;;;;;;;8.88;5.40;;;;;;;;;;10335800;28;20050;-79
2023/02/16 04:58:03;;;;;;;8.88;5.40;;;;;;;;;;10398503;23;20053;-83
2023/02/16 05:03:09;;;;;;;9.68;6.03;;;;;;;;;;10349558;28;20065;-84
2023/02/16 05:08:12;;;;;;;9.50;5.65;;;;;;;;;;10359824;28;20077;-83
2023/02/16 05:18:38;;;;;;;7.05;4.90;;;;;;;;;;10352842;28;20053;-84
2023/02/16 05:23:41;;;;;;;7.45;4.65;;;;;;;;;;10329953;28;20060;-87
2023/02/16 05:28:45;;;;;;;7.10;4.78;;;;;;;;;;10348732;28;20465;-85
2023/02/16 05:33:49;;;;;;;8.18;4.85;;;;;;;;;;10332890;28;20048;-84
2023/02/16 05:38:53;;;;;;;6.78;4.55;;;;;;;;;;10334984;28;20133;-84
2023/02/16 05:43:59;;;;;;;7.72;4.90;;;;;;;;;;10332254;28;20071;-85
2023/02/16 05:49:05;;;;;;;7.78;4.88;;;;;;;;;;10333234;28;20042;-81
2023/02/16 05:54:09;;;;;;;8.80;4.82;;;;;;;;;;10330760;28;20053;-81
2023/02/16 05:59:13;;;;;;;7.55;4.50;;;;;;;;;;10333007;28;20117;-82
2023/02/16 06:04:19;;;;;;;6.55;4.45;;;;;;;;;;10329110;28;20041;-83
2023/02/16 06:09:22;;;;;;;6.97;4.28;;;;;;;;;;10328431;28;20129;-82
2023/02/16 06:14:26;;;;;;;6.97;4.32;;;;;;;;;;10328005;28;20125;-82
2023/02/16 06:19:31;;;;;;;7.05;4.35;;;;;;;;;;10326581;28;20061;-83
2023/02/16 06:24:36;;;;;;;7.60;4.80;;;;;;;;;;10327547;28;20034;-82
2023/02/16 06:29:41;;;;;;;7.43;4.57;;;;;;;;;;10327916;28;20081;-84
2023/02/16 06:34:45;;;;;;;7.05;4.82;;;;;;;;;;10327794;28;20133;-84
2023/02/16 06:39:49;;;;;;;7.53;5.00;;;;;;;;;;10327598;28;20060;-84
2023/02/16 06:44:52;;;;;;;8.23;5.45;;;;;;;;;;10327417;28;20104;-84
2023/02/16 06:49:57;;;;;;;6.43;4.13;;;;;;;;;;10327838;28;20077;-84
2023/02/16 06:55:01;;;;;;;6.35;3.97;;;;;;;;;;10330292;28;20081;-84
2023/02/16 07:00:06;;;;;;;6.32;4.55;;;;;;;;;;10334661;28;20053;-84
2023/02/16 07:05:11;;;;;;;6.40;4.07;;;;;;;;;;10327427;28;20730;-83
2023/02/16 07:10:15;;;;;;;6.07;3.83;;;;;;;;;;10325372;28;20045;-83
2023/02/16 07:15:19;;;;;;;7.53;4.88;;;;;;;;;;10329991;28;20062;-84
2023/02/16 07:20:26;;;;;;;5.63;4.00;;;;;;;;;;10346685;28;20128;-84
2023/02/16 07:25:30;;;;;;;6.03;3.88;;;;;;;;;;10324837;28;20045;-83
2023/02/16 07:30:33;;;;;;;8.50;5.35;;;;;;;;;;10324836;28;20689;-84
2023/02/16 07:35:39;;;;;;;7.47;4.78;;;;;;;;;;10325514;28;20046;-83
2023/02/16 07:40:43;;;;;;;6.53;4.05;;;;;;;;;;10326287;28;20501;-84
2023/02/16 07:45:48;;;;;;;6.97;5.20;;;;;;;;;;10346033;28;20440;-85
2023/02/16 07:50:52;;;;;;;6.18;4.10;;;;;;;;;;10329682;28;20121;-86
2023/02/16 07:55:56;;;;;;;6.00;3.92;;;;;;;;;;10328965;28;20077;-88
2023/02/16 08:01:07;;;;;;;10.95;5.60;;;;;;;;;;10347042;28;20080;-86
2023/02/16 08:06:13;;;;;;;10.20;5.80;;;;;;;;;;10320774;28;20282;-86
2023/02/16 08:11:19;;;;;;;11.48;5.78;;;;;;;;;;10346578;28;20052;-87
2023/02/16 08:16:25;;;;;;;11.10;7.28;;;;;;;;;;10318876;28;20524;-86
2023/02/16 08:21:38;;;;;;;10.83;5.80;;;;;;;;;;10326820;28;20046;-88
2023/02/16 08:26:43;;;;;;;6.97;5.13;;;;;;;;;;10321575;28;20649;-87
2023/02/16 08:31:50;;;;;;;8.60;5.83;;;;;;;;;;10325022;28;20049;-88
2023/02/16 08:36:56;;;;;;;9.07;5.35;;;;;;;;;;10325134;28;20340;-86
2023/02/16 08:42:01;;;;;;;8.40;5.40;;;;;;;;;;10320941;28;20054;-86
2023/02/16 08:47:04;;;;;;;8.48;5.93;;;;;;;;;;10326112;28;20049;-85
2023/02/16 08:52:12;;;;;;;11.43;7.30;;;;;;;;;;10318436;28;20476;-85
2023/02/16 08:57:18;;;;;;;12.30;7.90;;;;;;;;;;10322376;28;20050;-86
2023/02/16 09:02:24;;;;;;;9.45;6.00;;;;;;;;;;10318236;28;20536;-85
2023/02/16 09:07:33;;;;;;;8.95;5.70;;;;;;;;;;10313397;28;20046;-85
2023/02/16 09:12:37;;;;;;;8.10;5.38;;;;;;;;;;10308740;28;20505;-84
2023/02/16 09:17:41;;;;;;;6.80;4.28;;;;;;;;;;10333865;28;20053;-85
2023/02/16 09:22:47;;;;;;;8.02;5.47;;;;;;;;;;10321188;28;20096;-86
2023/02/16 09:27:56;;;;;;;6.45;4.82;;;;;;;;;;10325627;28;20533;-85
2023/02/16 09:33:01;;;;;;;14.80;9.70;;;;;;;;;;10343716;28;20612;-85
2023/02/16 09:38:07;;;;;;;9.88;5.60;;;;;;;;;;10330129;28;20049;-85
2023/02/16 09:43:21;;;;;;;8.00;4.80;;;;;;;;;;10326194;28;20432;-86
2023/02/16 09:48:30;;;;;;;6.45;4.55;;;;;;;;;;10325507;28;20568;-85
2023/02/16 09:53:38;;;;;;;14.73;8.63;;;;;;;;;;10344447;28;20045;-85
2023/02/16 09:58:50;;;;;;;12.60;6.85;;;;;;;;;;10321640;28;20765;-86
2023/02/16 10:04:04;;;;;;;7.15;5.10;;;;;;;;;;10350837;28;20633;-87
2023/02/16 10:09:15;;;;;;;8.23;5.38;;;;;;;;;;10331608;28;20046;-87
2023/02/16 10:14:24;;;;;;;10.95;6.70;;;;;;;;;;10330446;28;20042;-87
2023/02/16 10:19:32;;;;;;;6.60;4.70;;;;;;;;;;10315334;28;20509;-86
2023/02/16 10:24:50;;;;;;;6.03;4.30;;;;;;;;;;10337335;28;20065;-86
2023/02/16 10:29:54;;;;;;;7.82;5.22;;;;;;;;;;10345413;28;20046;-86
2023/02/16 10:35:10;;;;;;;7.78;5.60;;;;;;;;;;10324080;28;20052;-86
2023/02/16 10:40:29;;;;;;;7.13;4.93;;;;;;;;;;10323536;28;20050;-86
2023/02/16 10:45:40;;;;;;;6.65;4.65;;;;;;;;;;10338413;28;20050;-87
2023/02/16 10:50:48;;;;;;;5.80;4.63;;;;;;;;;;10344320;28;20100;-87
2023/02/16 10:55:58;;;;;;;10.35;5.80;;;;;;;;;;10340660;28;20531;-88
2023/02/16 11:01:06;;;;;;;7.22;4.93;;;;;;;;;;10327306;28;20080;-87
2023/02/16 11:06:21;;;;;;;7.55;4.97;;;;;;;;;;10341410;28;20671;-90
2023/02/16 11:11:27;;;;;;;11.68;7.90;;;;;;;;;;10334908;28;20536;-87
2023/02/16 11:16:32;;;;;;;10.02;6.60;;;;;;;;;;10322877;28;20057;-86
2023/02/16 11:21:47;;;;;;;7.10;5.10;;;;;;;;;;10345538;28;20053;-87
2023/02/16 11:27:02;;;;;;;9.27;6.45;;;;;;;;;;10324222;28;20049;-87
2023/02/16 11:32:08;;;;;;;7.82;5.78;;;;;;;;;;10327765;28;20585;-86
2023/02/16 11:37:27;;;;;;;13.18;7.72;;;;;;;;;;10322967;28;20045;-86
2023/02/16 11:42:35;;;;;;;16.90;9.85;;;;;;;;;;10328848;28;20051;-87
2023/02/16 11:47:55;;;;;;;11.45;6.63;;;;;;;;;;10323482;28;20045;-86
2023/02/16 11:53:15;;;;;;;12.18;8.05;;;;;;;;;;10333256;28;20731;-87
2023/02/16 11:58:24;;;;;;;8.32;5.68;;;;;;;;;;10323574;28;20046;-87
2023/02/16 12:03:45;;;;;;;16.17;10.07;;;;;;;;;;10332237;28;20571;-88
2023/02/16 12:09:06;;;;;;;9.95;5.82;;;;;;;;;;10321323;28;20152;-86
2023/02/16 12:14:31;;;;;;;7.50;4.78;;;;;;;;;;10324574;28;20261;-87
2023/02/16 12:19:43;;;;;;;6.95;4.55;;;;;;;;;;10332655;28;20046;-89
2023/02/16 12:25:02;;;;;;;8.88;5.20;;;;;;;;;;10323282;28;20141;-87
2023/02/16 12:30:59;;;;;;;7.72;4.78;;;;;;;;;;10323919;28;20481;-87
2023/02/16 12:36:22;;;;;;;6.60;5.00;;;;;;;;;;10326750;28;20077;-87
2023/02/16 12:41:36;;;;;;;8.10;5.30;;;;;;;;;;10341823;28;20053;-86
2023/02/16 12:46:45;;;;;;;5.95;4.35;;;;;;;;;;10339713;28;20073;-86
2023/02/16 12:51:55;;;;;;;5.68;4.13;;;;;;;;;;10349933;28;20046;-89
2023/02/16 12:57:04;;;;;;;8.05;3.97;;;;;;;;;;10354384;28;20046;-89
2023/02/16 13:02:17;;;;;;;9.30;5.68;;;;;;;;;;10359954;28;20056;-91
2023/02/16 13:07:30;;;;;;;5.60;4.05;;;;;;;;;;10353610;28;20330;-88
2023/02/16 13:12:39;;;;;;;6.13;4.03;;;;;;;;;;10352785;28;20042;-86
2023/02/16 13:17:48;;;;;;;10.30;5.63;;;;;;;;;;10332801;28;20038;-89
2023/02/16 13:23:24;;;;;;;7.25;5.32;;;;;;;;;;10347789;28;20480;-88
2023/02/16 13:28:36;;;;;;;;;;;;;;;;;;11058294;23;20042;-82
2023/02/16 13:33:55;;;;;;;8.93;6.13;;;;;;;;;;10294519;28;19955;-81
2023/02/16 13:39:14;;;;;;;6.40;4.68;;;;;;;;;;10274944;28;20129;-81
2023/02/16 13:44:20;;;;;;;5.63;3.85;;;;;;;;;;10283709;28;20046;-82
2023/02/16 13:49:37;;;;;;;9.57;6.68;;;;;;;;;;10291575;28;20117;-82
2023/02/16 13:54:42;;;;;;;11.65;6.35;;;;;;;;;;10281720;28;20134;-80
2023/02/16 13:59:58;;;;;;;10.05;4.82;;;;;;;;;;10263833;28;20039;-80
2023/02/16 14:05:10;;;;;;;9.70;6.28;;;;;;;;;;10268475;28;20130;-81
2023/02/16 14:10:14;;;;;;;8.88;6.57;;;;;;;;;;10268121;28;20049;-82
2023/02/16 14:15:20;;;;;;;11.18;7.55;;;;;;;;;;10256701;28;20047;-82
2023/02/16 14:20:29;;;;;;;10.23;6.60;;;;;;;;;;10253791;28;20042;-82
2023/02/16 14:25:40;;;;;;;14.93;9.20;;;;;;;;;;10245790;28;20709;-81
2023/02/16 14:30:48;;;;;;;12.23;7.85;;;;;;;;;;10246257;28;21470;-80
2023/02/16 14:36:12;;;;;;;10.32;6.93;;;;;;;;;;10258369;28;20047;-87
2023/02/16 14:41:26;;;;;;;6.97;4.25;;;;;;;;;;10255083;28;20050;-82
2023/02/16 14:46:47;;;;;;;8.95;5.75;;;;;;;;;;10261369;28;20548;-88
2023/02/16 14:52:35;;;;;;;7.43;4.82;;;;;;;;;;10264047;28;20166;-86
2023/02/16 14:57:46;;;;;;;5.05;3.33;;;;;;;;;;10274666;28;20108;-87
2023/02/16 15:02:57;;;;;;;6.93;3.97;;;;;;;;;;10275974;28;20105;-87
2023/02/16 15:08:17;;;;;;;5.45;3.95;;;;;;;;;;10275077;28;20078;-85
2023/02/16 15:13:21;;;;;;;7.07;4.85;;;;;;;;;;10270128;28;20583;-85
2023/02/16 15:18:29;;;;;;;9.65;4.82;;;;;;;;;;10253950;28;20383;-83
2023/02/16 15:23:36;;;;;;;5.97;4.53;;;;;;;;;;10256071;28;20045;-82
2023/02/16 15:28:40;;;;;;;6.50;4.38;;;;;;;;;;10251487;28;20038;-83
2023/02/16 15:33:53;;;;;;;6.32;4.20;;;;;;;;;;10263109;28;20420;-82
2023/02/16 15:39:02;;;;;;;5.97;4.43;;;;;;;;;;10276219;28;20043;-82
2023/02/16 15:44:13;;;;;;;6.75;3.70;;;;;;;;;;10251304;28;20058;-82
2023/02/16 15:49:25;;;;;;;6.03;3.90;;;;;;;;;;10274642;28;20035;-82
2023/02/16 15:54:32;;;;;;;6.40;3.88;;;;;;;;;;10281403;28;20464;-82
2023/02/16 15:59:39;;;;;;;6.32;4.00;;;;;;;;;;10275908;28;20053;-82
2023/02/16 16:04:45;;;;;;;5.75;4.03;;;;;;;;;;10264948;28;20133;-81
2023/02/16 16:09:51;;;;;;;5.45;3.63;;;;;;;;;;10268194;28;20101;-83
2023/02/16 16:14:56;;;;;;;5.50;3.77;;;;;;;;;;10275297;28;20038;-82
2023/02/16 16:20:24;;;;;;;5.33;3.93;;;;;;;;;;10250303;28;20520;-82
2023/02/16 16:25:37;;;;;;;5.32;3.17;;;;;;;;;;10256864;28;20057;-82
2023/02/16 16:30:42;;;;;;;5.30;3.53;;;;;;;;;;10254407;28;20046;-84
2023/02/16 16:35:49;;;;;;;4.43;3.23;;;;;;;;;;10265222;28;20078;-88
2023/02/16 16:40:56;;;;;;;5.50;2.92;;;;;;;;;;10263416;28;20062;-85
2023/02/16 16:46:13;;;;;;;6.00;4.32;;;;;;;;;;10280811;28;20050;-87
2023/02/16 16:51:19;;;;;;;7.78;4.90;;;;;;;;;;10296667;28;20177;-88
2023/02/16 16:56:24;;;;;;;;;;;;;;;;;;10279042;28;20073;-86
2023/02/16 17:01:30;;;;;;;6.25;4.07;;;;;;;;;;10316580;23;19922;-79
2023/02/16 17:20:44;;;;;;;9.68;4.38;;;;;;;;;;10146792;29;20044;-81
2023/02/16 17:25:50;;;;;;;6.50;4.13;;;;;;;;;;10252655;28;20075;-80
2023/02/16 17:30:56;;;;;;;5.30;3.65;;;;;;;;;;10247678;28;20051;-81
2023/02/16 17:36:41;;;;;;;5.18;3.55;;;;;;;;;;10243318;28;20141;-80
2023/02/16 17:42:00;;;;;;;;;;;;;;;;;;;;;
2023/02/16 17:47:26;;;;;;;6.00;4.32;;;;;;;;;;10234816;28;20525;-79
2023/02/16 17:52:38;;;;;;;7.70;5.77;;;;;;;;;;10196763;28;20055;-80
2023/02/16 17:57:50;;;;;;;7.93;4.43;;;;;;;;;;10214369;28;20083;-81
2023/02/16 18:03:01;;;;;;;5.68;3.47;;;;;;;;;;10219138;28;20310;-80
2023/02/16 18:08:07;;;;;;;5.65;3.58;;;;;;;;;;11063842;23;20047;-82
2023/02/16 18:13:11;;;;;;;4.25;3.35;;;;;;;;;;10288669;28;20186;-81
2023/02/16 18:18:16;;;;;;;4.60;3.15;;;;;;;;;;10289006;28;20039;-82
2023/02/16 18:23:21;;;;;;;7.65;3.90;;;;;;;;;;10277309;28;20043;-85
2023/02/16 18:28:27;;;;;;;5.35;3.80;;;;;;;;;;10279007;28;20054;-85
2023/02/16 18:33:32;;;;;;;7.80;3.80;;;;;;;;;;10265432;28;20047;-89
2023/02/16 18:38:41;;;;;;;6.63;4.47;;;;;;;;;;10293380;28;20072;-85
2023/02/16 18:43:47;;;;;;;6.05;3.40;;;;;;;;;;10271628;28;20101;-88
2023/02/16 18:48:54;;;;;;;6.82;4.28;;;;;;;;;;10387320;23;20024;-78
2023/02/16 18:54:00;;;;;;;8.40;3.95;;;;;;;;;;10290993;28;20097;-79
2023/02/16 18:59:04;;;;;;;6.03;4.23;;;;;;;;;;10291884;28;20073;-79
2023/02/16 19:04:07;;;;;;;7.72;4.15;;;;;;;;;;10264385;28;20058;-78
2023/02/16 19:09:12;;;;;;;5.15;3.78;;;;;;;;;;10255446;28;20050;-80
2023/02/16 19:14:15;;;;;;;6.18;4.20;;;;;;;;;;10272194;28;20110;-80
2023/02/16 19:19:18;;;;;;;6.25;4.15;;;;;;;;;;10294246;28;20049;-80
2023/02/16 19:24:24;;;;;;;7.25;4.50;;;;;;;;;;10271314;28;20066;-80
2023/02/16 19:29:28;;;;;;;10.40;5.60;;;;;;;;;;10265166;28;20049;-80
2023/02/16 19:34:32;;;;;;;10.02;5.72;;;;;;;;;;10271164;28;20057;-80
2023/02/16 19:39:36;;;;;;;18.95;9.98;;;;;;;;;;10297979;28;20137;-79
2023/02/16 19:44:40;;;;;;;32.15;12.88;;;;;;;;;;10262611;28;20054;-79
2023/02/16 19:49:44;;;;;;;31.35;12.80;;;;;;;;;;10259186;28;20056;-79
2023/02/16 19:54:48;;;;;;;23.45;9.68;;;;;;;;;;10258404;28;20043;-80
2023/02/16 19:59:52;;;;;;;20.98;9.82;;;;;;;;;;10275699;28;20085;-80
2023/02/16 20:04:55;;;;;;;22.70;10.32;;;;;;;;;;10264995;28;20045;-79
2023/02/16 20:09:59;;;;;;;25.98;11.13;;;;;;;;;;10256931;28;20061;-80
2023/02/16 20:15:03;;;;;;;32.17;15.77;;;;;;;;;;10277585;28;20061;-78
2023/02/16 20:20:07;;;;;;;26.80;13.68;;;;;;;;;;10250196;28;20054;-78
2023/02/16 20:25:12;;;;;;;18.42;9.60;;;;;;;;;;10286713;28;20039;-80
2023/02/16 20:30:19;;;;;;;12.30;7.15;;;;;;;;;;10259649;28;20042;-79
2023/02/16 20:35:22;;;;;;;10.25;6.43;;;;;;;;;;10256485;28;20046;-80
2023/02/16 20:40:27;;;;;;;7.80;4.72;;;;;;;;;;10260190;28;20418;-79
2023/02/16 20:45:30;;;;;;;5.47;3.92;;;;;;;;;;10283948;28;20045;-79
2023/02/16 20:50:34;;;;;;;5.80;3.60;;;;;;;;;;10270720;28;20641;-79
2023/02/16 20:55:41;;;;;;;5.72;3.50;;;;;;;;;;10283927;28;20069;-79
2023/02/16 21:00:45;;;;;;;4.22;2.90;;;;;;;;;;10277485;28;20379;-79
2023/02/16 21:05:48;;;;;;;6.72;2.95;;;;;;;;;;10269289;28;20051;-80
2023/02/16 21:10:53;;;;;;;3.40;2.47;;;;;;;;;;10272008;28;20067;-79
2023/02/16 21:15:56;;;;;;;4.65;2.85;;;;;;;;;;10269566;28;20410;-80
2023/02/16 21:21:00;;;;;;;5.63;2.90;;;;;;;;;;10264703;28;20043;-80
2023/02/16 21:26:07;;;;;;;5.00;2.75;;;;;;;;;;10258644;28;20182;-79
2023/02/16 21:31:14;;;;;;;4.15;2.55;;;;;;;;;;10259114;28;20133;-79
2023/02/16 21:36:20;;;;;;;4.35;2.40;;;;;;;;;;10250889;28;20134;-79
2023/02/16 21:41:27;;;;;;;8.32;4.65;;;;;;;;;;10265149;28;20041;-81
2023/02/16 21:46:32;;;;;;;6.35;3.28;;;;;;;;;;10259728;28;20042;-80
2023/02/16 21:51:38;;;;;;;4.68;2.95;;;;;;;;;;10273684;28;20537;-80
2023/02/16 21:56:45;;;;;;;3.30;2.10;;;;;;;;;;10293587;28;20711;-80
2023/02/16 22:01:49;;;;;;;3.38;2.33;;;;;;;;;;10277124;28;20453;-81
2023/02/16 22:06:53;;;;;;;2.47;2.20;;;;;;;;;;10261450;28;20050;-79
2023/02/16 22:11:58;;;;;;;4.03;2.60;;;;;;;;;;10254168;28;20093;-80
2023/02/16 22:17:03;;;;;;;3.15;2.13;;;;;;;;;;10259173;28;20054;-81
2023/02/16 22:22:06;;;;;;;3.70;2.75;;;;;;;;;;10273306;28;20046;-80
2023/02/16 22:27:11;;;;;;;6.38;3.30;;;;;;;;;;10257585;28;20453;-81
2023/02/16 22:32:14;;;;;;;5.30;2.75;;;;;;;;;;10261035;28;20042;-80
2023/02/16 22:37:17;;;;;;;13.95;6.10;;;;;;;;;;10272968;28;20074;-80
2023/02/16 22:42:22;;;;;;;6.88;3.72;;;;;;;;;;10270975;28;20046;-81
2023/02/16 22:47:25;;;;;;;6.45;3.97;;;;;;;;;;10275503;28;20563;-80
2023/02/16 22:52:29;;;;;;;9.57;4.68;;;;;;;;;;10286190;28;20038;-81
2023/02/16 22:57:37;;;;;;;6.70;4.43;;;;;;;;;;10265534;28;20346;-80
2023/02/16 23:02:40;;;;;;;4.75;3.42;;;;;;;;;;10263270;28;20339;-81
2023/02/16 23:07:43;;;;;;;4.82;3.33;;;;;;;;;;10279505;28;20047;-79
2023/02/16 23:12:48;;;;;;;4.90;3.33;;;;;;;;;;10262308;28;20046;-79
2023/02/16 23:17:51;;;;;;;6.45;3.97;;;;;;;;;;10260897;28;20051;-80
2023/02/16 23:22:54;;;;;;;4.65;2.80;;;;;;;;;;10263975;28;20042;-80
2023/02/16 23:27:59;;;;;;;3.47;2.25;;;;;;;;;;10248245;28;20054;-79
2023/02/16 23:33:03;;;;;;;3.67;2.95;;;;;;;;;;10274608;28;20046;-79
2023/02/16 23:38:07;;;;;;;3.85;2.83;;;;;;;;;;10257352;28;20054;-79
2023/02/16 23:43:11;;;;;;;5.03;3.22;;;;;;;;;;10268205;28;20058;-80
2023/02/16 23:48:15;;;;;;;7.30;4.90;;;;;;;;;;10262140;28;20039;-79
2023/02/16 23:53:19;;;;;;;6.28;3.88;;;;;;;;;;10275314;28;20038;-82
2023/02/16 23:58:26;;;;;;;8.68;5.10;;;;;;;;;;10285867;28;20095;-80
